Flight Track Log - Related Links

Times and Time Zones

All times are in EDT time to prevent confusion due to time zone crossing. See the ASQ5941 flight status page for this flight to view local times or setup timezone preferences in your user account.

Time Position Orientation Groundspeed Altitude Reporting Facility
EDT Latitude Longitude Course Direction KTS MPH feet Rate Location/Type
Tue 06:43:54 PM 41.9667 -87.8500 90° East 185 213 2,600  Level Chicago TRACON
Tue 06:44:48 PM 41.9833 -87.7667 75° East 250 288 3,900 1,832 Climbing Chicago TRACON
Tue 06:46:00 PM 42.0630 -87.2827 78° East  Level FlightAware Approximate
Tue 06:46:41 PM 42.0400 -87.5933 66° East 291 335 7,700  Level Chicago Center
Tue 06:47:00 PM 42.0873 -87.1263 77° East  Level FlightAware Approximate
Tue 06:47:42 PM 42.0567 -87.4775 79° East 314 361 9,400  Level Chicago Center
Tue 06:48:00 PM 42.1039 -86.9688 80° East  Level FlightAware Approximate
Tue 06:48:44 PM 42.0731 -87.3525 80° East 337 388 11,400  Level Chicago Center
Tue 06:49:00 PM 42.1167 -86.8201 90° East  Level FlightAware Approximate
Tue 06:49:46 PM 42.0914 -87.2258 79° East 344 396 13,300  Level Chicago Center
Tue 06:50:48 PM 42.1089 -87.0914 80° East 362 417 14,400 1,500 Climbing Chicago Center
Tue 06:51:50 PM 42.1131 -86.9119 88° East 398 458 16,400 1,984 Climbing Chicago Center
Tue 06:52:52 PM 42.1158 -86.7664 88° East 393 452 18,500 1,935 Climbing Chicago Center
Tue 06:53:54 PM 42.1189 -86.6228 88° East 391 450 20,400 1,742 Climbing Chicago Center
Tue 06:54:56 PM 42.1214 -86.4783 89° East 388 447 22,100 1,403 Climbing Chicago Center
Tue 06:55:58 PM 42.1222 -86.3283 90° East 398 458 23,300 1,258 Climbing Chicago Center
Tue 06:57:00 PM 42.1253 -86.1717 88° East 414 476 24,700 1,306 Climbing Chicago Center
Tue 06:58:02 PM 42.1272 -85.9797 89° East 424 488 26,000 1,065 Climbing Chicago Center
Tue 06:59:04 PM 42.1281 -85.8292 90° East 435 501 26,900 919 Climbing Chicago Center
Tue 07:00:06 PM 42.1289 -85.6631 90° East 445 512 27,900 1,065 Climbing Chicago Center
Tue 07:01:08 PM 42.1303 -85.4608 89° East 453 521 29,100 1,065 Climbing Chicago Center
Tue 07:02:10 PM 42.1314 -85.2922 89° East 454 522 30,100 968 Climbing Chicago Center
Tue 07:03:12 PM 42.1331 -85.1158 89° East 470 541 31,100 968 Climbing Chicago Center
Tue 07:04:14 PM 42.1319 -84.9425 90° East 467 537 32,100 1,016 Climbing Chicago Center
Tue 07:05:16 PM 42.1292 -84.7656 91° East 474 545 33,200 1,016 Climbing Chicago Center
Tue 07:06:18 PM 42.1264 -84.5875 91° East 478 550 34,200 864 Climbing Chicago Center
Tue 07:07:21 PM 42.1247 -84.3714 91° East 469 540 35,000 390 Climbing Cleveland Center
Tue 07:08:21 PM 42.1194 -84.2058 92° East 474 545 35,000  Level Cleveland Center
Tue 07:09:21 PM 42.1169 -84.0208 91° East 487 560 35,000  Level Cleveland Center
Tue 07:10:21 PM 42.1139 -83.8358 91° East 492 566 35,000  Level Cleveland Center
Tue 07:11:21 PM 42.1092 -83.6342 92° East 492 566 35,000  Level Cleveland Center
Tue 07:12:21 PM 42.1072 -83.4661 91° East 492 566 35,000  Level Cleveland Center
Tue 07:13:21 PM 42.1053 -83.2839 91° East 492 566 35,000  Level Cleveland Center
Tue 07:14:21 PM 42.0994 -83.0794 92° East 498 573 35,000  Level Cleveland Center
Tue 07:15:21 PM 42.0950 -82.9003 92° East 498 573 35,000  Level Cleveland Center
Tue 07:16:21 PM 42.0903 -82.7181 92° East 493 567 35,000  Level Cleveland Center
Tue 07:17:21 PM 42.0894 -82.5278 90° East 498 573 35,000  Level Cleveland Center
Tue 07:18:21 PM 42.0839 -82.3458 92° East 498 573 35,000  Level Cleveland Center
Tue 07:19:21 PM 42.0764 -82.1553 93° East 498 573 35,000  Level Cleveland Center
Tue 07:20:21 PM 42.0725 -81.9678 92° East 503 579 35,000  Level Cleveland Center
Tue 07:21:21 PM 42.0642 -81.7775 93° East 497 572 35,000  Level Cleveland Center
Tue 07:22:21 PM 42.0578 -81.5928 93° East 497 572 35,000  Level Cleveland Center
Tue 07:23:21 PM 42.0528 -81.4219 92° East 497 572 35,000  Level Cleveland Center
Tue 07:24:21 PM 42.0456 -81.2403 93° East 497 572 35,000  Level Cleveland Center
Tue 07:25:21 PM 42.0381 -81.0583 93° East 497 572 35,000  Level Cleveland Center
Tue 07:26:21 PM 42.0306 -80.8711 93° East 497 572 35,000  Level Cleveland Center
Tue 07:27:21 PM 42.0225 -80.6839 93° East 497 572 35,000  Level Cleveland Center
Tue 07:28:21 PM 42.0119 -80.4769 94° East 497 572 35,000  Level Cleveland Center
Tue 07:29:21 PM 42.0056 -80.2869 93° East 502 578 35,000 -400 Level Cleveland Center
Tue 07:30:21 PM 41.9944 -80.0997 95° East 504 580 34,200 -500 Descending Cleveland Center
Tue 07:31:21 PM 41.9853 -79.9183 94° East 498 573 34,000 -100 Descending Cleveland Center
Tue 07:32:21 PM 41.9778 -79.7369 93° East 486 559 34,000  Level Cleveland Center
Tue 07:33:21 PM 41.9681 -79.5583 94° East 481 554 34,000  Level Cleveland Center
Tue 07:34:21 PM 41.9578 -79.3742 94° East 481 554 34,000  Level Cleveland Center
Tue 07:35:21 PM 41.9431 -79.1872 96° East 486 559 34,000 -250 Level Cleveland Center
Tue 07:36:21 PM 41.9219 -78.9981 98° East 502 578 33,500 -750 Descending Cleveland Center
Tue 07:37:21 PM 41.9006 -78.8117 99° East 507 583 32,500 -950 Descending Cleveland Center
Tue 07:38:21 PM 41.8767 -78.6283 100° East 500 575 31,600 -950 Descending Cleveland Center
Tue 07:39:21 PM 41.8547 -78.4422 99° East 500 575 30,600 -1,000 Descending Cleveland Center
Tue 07:40:21 PM 41.8322 -78.2561 99° East 500 575 29,600 -1,050 Descending Cleveland Center
Tue 07:41:21 PM 41.8094 -78.0675 99° East 500 575 28,500 -1,355 Descending Cleveland Center
Tue 07:41:54 PM 41.7989 -77.9719 98° East 497 572 27,500 -2,170 Descending New York Center
Tue 07:42:55 PM 41.7758 -77.7997 100° East 482 555 25,100 -2,571 Descending New York Center
Tue 07:43:53 PM 41.7531 -77.6192 100° East 489 563 22,400 -2,824 Descending New York Center
Tue 07:44:54 PM 41.7331 -77.4558 99° East 467 537 19,500 -1,918 Descending New York Center
Tue 07:45:55 PM 41.7081 -77.2728 100° East 456 525 18,500 -908 Descending New York Center
Tue 07:46:53 PM 41.6856 -77.1094 100° East 456 525 17,700 -915 Descending New York Center
Tue 07:47:53 PM 41.6631 -76.9433 100° East 456 525 16,700 -992 Descending New York Center
Tue 07:48:54 PM 41.6419 -76.7861 100° East 451 519 15,700 -1,587 Descending New York Center
Tue 07:49:54 PM 41.6206 -76.6314 100° East 430 495 13,500 -2,132 Descending New York Center
Tue 07:50:55 PM 41.6025 -76.4856 99° East 414 476 11,400 -1,636 Descending New York Center
Tue 07:51:55 PM 41.5872 -76.3706 100° East 368 423 10,200 -1,322 Descending New York Center
Tue 07:52:53 PM 41.5717 -76.2583 100° East 327 376 8,800 -1,525 Descending New York Center
Tue 07:53:53 PM 41.5517 -76.1486 104° East 283 326 7,200 -1,736 Descending New York Center
Tue 07:54:54 PM 41.5158 -76.0653 120° Southeast 262 302 5,300 -1,600 Descending New York Center
Tue 07:55:53 PM 41.4736 -75.9844 125° Southeast 262 302 4,000 -639 Descending New York Center
Tue 07:56:56 PM 41.4331 -75.9094 126° Southeast 257 296 4,000 -50 Level New York Center
Tue 07:57:53 PM 41.3817 -75.8475 138° Southeast 252 290 3,900 -513 Descending New York Center
Tue 07:58:53 PM 41.3286 -75.8214 160° South 213 245 3,000 -900 Descending New York Center

Login

Don't have an account? Register now (free) for customized features, flight alerts, and more!